Time;durP1;ratioP1;P1;durP2;ratioP2;P2;SDS_P1;SDS_P2;PMS_P1;PMS_P2;Temp;Humidity;BMP_temperature;BMP_pressure;BME280_temperature;BME280_humidity;BME280_pressure;Samples;Min_cycle;Max_cycle;Signal;HPM_P1;HPM_P2
2023/11/17 00:00:25;;;;;;;5.50;3.80;;;4.20;99.90;;;;;;5080240;28;20423;-51
2023/11/17 00:02:54;;;;;;;3.77;2.73;;;4.20;99.90;;;;;;5080275;28;20400;-58
2023/11/17 00:05:21;;;;;;;5.40;3.20;;;4.10;99.90;;;;;;5080248;28;20408;-54
2023/11/17 00:07:48;;;;;;;7.70;3.13;;;4.00;99.90;;;;;;5079996;28;20539;-57
2023/11/17 00:10:16;;;;;;;6.13;3.90;;;4.00;99.90;;;;;;5080165;28;20423;-54
2023/11/17 00:12:43;;;;;;;4.97;3.63;;;4.00;99.90;;;;;;5080003;28;20522;-54
2023/11/17 00:15:12;;;;;;;3.97;3.20;;;4.00;99.90;;;;;;5079988;28;20462;-55
2023/11/17 00:17:39;;;;;;;4.00;3.43;;;3.90;99.90;;;;;;5079905;28;20416;-57
2023/11/17 00:20:07;;;;;;;4.33;3.27;;;3.90;99.90;;;;;;5079923;28;20407;-53
2023/11/17 00:22:34;;;;;;;4.63;2.60;;;4.00;99.90;;;;;;5079899;28;20463;-55
2023/11/17 00:25:01;;;;;;;4.60;3.07;;;4.10;99.90;;;;;;5079803;28;20432;-54
2023/11/17 00:27:29;;;;;;;6.17;3.63;;;4.10;99.90;;;;;;5079576;28;20451;-55
2023/11/17 00:29:56;;;;;;;4.90;3.60;;;4.20;99.90;;;;;;5079783;28;20407;-54
2023/11/17 00:32:23;;;;;;;5.17;3.47;;;4.20;99.90;;;;;;5079596;28;20412;-51
2023/11/17 00:34:50;;;;;;;6.10;3.77;;;4.20;99.90;;;;;;5079619;28;20436;-49
2023/11/17 00:37:17;;;;;;;7.10;4.70;;;4.30;99.90;;;;;;5079590;28;20428;-55
2023/11/17 00:39:44;;;;;;;4.50;3.73;;;4.40;99.90;;;;;;5079532;28;20411;-48
2023/11/17 00:42:12;;;;;;;5.00;3.50;;;4.40;99.90;;;;;;5079407;28;20447;-57
2023/11/17 00:44:40;;;;;;;6.73;4.60;;;4.40;99.90;;;;;;5079358;28;20424;-51
2023/11/17 00:47:07;;;;;;;6.30;2.67;;;4.40;99.90;;;;;;5079303;28;20424;-53
2023/11/17 00:49:34;;;;;;;4.07;2.60;;;4.40;99.90;;;;;;5079442;28;20403;-49
2023/11/17 00:52:01;;;;;;;4.00;3.13;;;4.40;99.90;;;;;;5079344;28;20436;-46
2023/11/17 00:54:28;;;;;;;7.93;3.33;;;4.40;99.90;;;;;;5079146;28;20462;-49
2023/11/17 00:56:55;;;;;;;4.20;3.30;;;4.30;99.90;;;;;;5079269;28;20404;-50
2023/11/17 00:59:22;;;;;;;4.73;3.00;;;4.40;99.90;;;;;;5079284;28;20407;-48
2023/11/17 01:01:51;;;;;;;4.10;3.00;;;4.40;99.90;;;;;;5079065;28;20443;-55
2023/11/17 01:04:19;;;;;;;2.97;2.60;;;4.40;99.90;;;;;;5078704;28;20438;-56
2023/11/17 01:06:51;;;;;;;4.97;3.17;;;4.40;99.90;;;;;;5079167;28;20399;-51
2023/11/17 01:09:18;;;;;;;3.93;2.90;;;4.50;99.90;;;;;;5079057;28;20461;-47
2023/11/17 01:11:45;;;;;;;4.67;3.23;;;4.50;99.90;;;;;;5078903;28;20429;-55
2023/11/17 01:14:18;;;;;;;4.00;2.93;;;4.40;99.90;;;;;;5078938;28;20458;-54
2023/11/17 01:16:46;;;;;;;3.60;3.23;;;4.50;99.90;;;;;;5079022;28;20411;-54
2023/11/17 01:47:51;;;;;;;3.43;2.10;;;4.70;99.90;;;;;;5350980;23;20489;-67
2023/11/17 01:50:19;;;;;;;2.20;1.50;;;4.70;99.90;;;;;;5005196;28;20445;-66
2023/11/17 01:52:47;;;;;;;3.13;2.37;;;4.70;99.90;;;;;;5006214;28;20461;-66
2023/11/17 01:55:21;;;;;;;2.43;2.10;;;4.70;99.90;;;;;;5006710;28;20438;-66
2023/11/17 01:57:49;;;;;;;2.27;1.93;;;4.80;99.90;;;;;;5005694;28;20857;-66
2023/11/17 02:00:16;;;;;;;4.57;2.70;;;4.80;99.90;;;;;;5006113;28;20429;-67
2023/11/17 02:06:21;;;;;;;3.40;2.23;;;4.80;99.90;;;;;;5005629;28;20401;-66
2023/11/17 02:09:13;;;;;;;5.13;1.90;;;4.80;99.90;;;;;;5006263;28;20875;-66
2023/11/17 02:11:45;;;;;;;3.50;2.13;;;4.80;99.90;;;;;;5005641;28;20468;-66
2023/11/17 02:14:20;;;;;;;3.77;2.23;;;4.80;99.90;;;;;;5006426;28;20841;-66
2023/11/17 02:16:50;;;;;;;2.50;2.00;;;4.80;99.90;;;;;;4984227;28;20454;-66
2023/11/17 02:19:32;;;;;;;2.90;1.93;;;4.80;99.90;;;;;;5009922;28;20422;-65
2023/11/17 02:22:30;;;;;;;2.10;1.87;;;4.70;99.90;;;;;;5009019;28;20461;-66
2023/11/17 02:25:21;;;;;;;3.00;2.10;;;4.70;99.90;;;;;;5006933;28;20838;-66
2023/11/17 02:27:59;;;;;;;2.40;2.03;;;4.60;99.90;;;;;;5008013;28;20494;-66
2023/11/17 02:30:30;;;;;;;2.30;2.00;;;4.50;99.90;;;;;;5007783;28;20472;-66
2023/11/17 02:32:59;;;;;;;3.60;2.40;;;4.60;99.90;;;;;;5008632;28;20462;-66
2023/11/17 02:36:17;;;;;;;3.43;2.17;;;4.60;99.90;;;;;;5007917;28;20426;-66
2023/11/17 02:38:57;;;;;;;4.40;2.27;;;4.60;99.90;;;;;;5008560;28;20426;-66
2023/11/17 02:44:46;;;;;;;3.40;2.40;;;4.60;99.90;;;;;;5008707;28;21021;-66
2023/11/17 02:47:38;;;;;;;2.30;1.60;;;4.60;99.90;;;;;;5007747;28;20449;-66
2023/11/17 02:50:38;;;;;;;3.23;1.93;;;4.60;99.90;;;;;;5007917;28;20481;-66
2023/11/17 02:53:24;;;;;;;3.63;2.67;;;4.60;99.90;;;;;;5006730;28;20994;-66
2023/11/17 02:55:52;;;;;;;2.13;1.83;;;4.50;99.90;;;;;;5006334;28;20461;-66
2023/11/17 02:58:20;;;;;;;3.17;2.87;;;4.50;99.90;;;;;;5005844;28;20426;-66
2023/11/17 03:00:59;;;;;;;2.43;1.90;;;4.50;99.90;;;;;;5002301;28;20454;-66
2023/11/17 03:03:27;;;;;;;2.50;1.80;;;4.50;99.90;;;;;;5002829;28;20433;-66
2023/11/17 03:05:58;;;;;;;2.20;1.73;;;4.50;99.90;;;;;;5003414;28;20426;-67
2023/11/17 03:08:37;;;;;;;1.90;1.70;;;4.50;99.90;;;;;;5005134;28;20816;-66
2023/11/17 03:11:24;;;;;;;4.93;2.60;;;4.50;99.90;;;;;;5004749;28;20422;-65
2023/11/17 03:13:51;;;;;;;3.17;2.30;;;4.50;99.90;;;;;;5003123;28;20418;-65
2023/11/17 03:16:23;;;;;;;4.00;2.73;;;4.40;99.90;;;;;;5002999;28;20839;-66
2023/11/17 03:19:10;;;;;;;4.47;2.43;;;4.50;99.90;;;;;;5005933;28;20438;-66
2023/11/17 03:21:40;;;;;;;7.10;2.53;;;4.40;99.90;;;;;;4988166;28;20458;-66
2023/11/17 03:24:14;;;;;;;3.23;2.07;;;4.40;99.90;;;;;;5005385;28;20457;-66
2023/11/17 03:26:57;;;;;;;3.33;2.53;;;4.40;99.90;;;;;;4997647;28;20462;-66
2023/11/17 03:29:31;;;;;;;2.50;2.03;;;4.40;99.90;;;;;;5005715;28;20524;-66
2023/11/17 03:32:16;;;;;;;2.60;2.00;;;4.40;99.90;;;;;;5005210;28;20470;-66
2023/11/17 03:34:58;;;;;;;4.67;2.83;;;4.50;99.90;;;;;;5005224;28;20505;-67
2023/11/17 03:37:27;;;;;;;3.43;2.50;;;4.50;99.90;;;;;;5004442;28;20430;-66
2023/11/17 03:39:54;;;;;;;5.17;2.87;;;4.40;99.90;;;;;;5004250;28;20442;-66
2023/11/17 03:42:35;;;;;;;2.87;2.43;;;4.40;99.90;;;;;;5005615;28;20486;-65
2023/11/17 03:45:27;;;;;;;3.37;3.07;;;4.40;99.90;;;;;;5004562;28;20488;-66
2023/11/17 03:47:54;;;;;;;3.90;2.90;;;4.40;99.90;;;;;;5005715;28;20761;-67
2023/11/17 03:50:22;;;;;;;3.03;2.60;;;4.40;99.90;;;;;;5006463;28;20504;-67
2023/11/17 03:53:09;;;;;;;3.57;2.57;;;4.40;99.90;;;;;;5007366;28;20470;-66
2023/11/17 03:55:36;;;;;;;4.40;2.53;;;4.40;99.90;;;;;;5006044;28;20446;-67
2023/11/17 03:58:05;;;;;;;4.13;2.30;;;4.40;99.90;;;;;;5005608;28;20513;-67
2023/11/17 04:00:48;;;;;;;5.47;3.40;;;4.40;99.90;;;;;;5006275;28;20446;-65
2023/11/17 04:03:19;;;;;;;4.90;2.90;;;4.40;99.90;;;;;;5005367;28;20504;-67
2023/11/17 04:05:48;;;;;;;3.37;2.23;;;4.40;99.90;;;;;;5004768;28;20431;-64
2023/11/17 04:08:21;;;;;;;5.17;3.90;;;4.30;99.90;;;;;;5005678;28;20497;-66
2023/11/17 04:10:48;;;;;;;6.37;3.30;;;4.30;99.90;;;;;;5004768;28;20434;-68
2023/11/17 04:13:17;;;;;;;5.40;3.00;;;4.30;99.90;;;;;;5004153;28;20466;-66
2023/11/17 04:16:06;;;;;;;3.03;1.70;;;4.30;99.90;;;;;;5005385;28;20459;-66
2023/11/17 04:18:42;;;;;;;4.87;3.27;;;4.30;99.90;;;;;;5004354;28;20454;-66
2023/11/17 04:21:11;;;;;;;3.63;2.70;;;4.30;99.90;;;;;;5005077;28;20441;-67
2023/11/17 04:23:38;;;;;;;3.90;2.80;;;4.30;99.90;;;;;;5004974;28;20974;-67
2023/11/17 04:26:09;;;;;;;4.93;3.00;;;4.30;99.90;;;;;;5005833;28;20469;-66
2023/11/17 04:28:38;;;;;;;3.20;2.17;;;4.30;99.90;;;;;;5004755;28;20478;-67
2023/11/17 04:31:05;;;;;;;4.97;2.70;;;4.30;99.90;;;;;;5005325;28;20884;-66
2023/11/17 04:33:41;;;;;;;7.57;4.20;;;4.30;99.90;;;;;;4988089;28;20440;-66
2023/11/17 04:36:18;;;;;;;3.13;2.17;;;4.30;99.90;;;;;;5004880;28;20465;-66
2023/11/17 04:38:45;;;;;;;4.37;2.70;;;4.30;99.90;;;;;;5004643;28;20500;-66
2023/11/17 04:41:13;;;;;;;5.37;3.57;;;4.30;99.90;;;;;;5004369;28;20457;-66
2023/11/17 04:43:42;;;;;;;3.63;2.97;;;4.30;99.90;;;;;;5004816;28;20426;-66
2023/11/17 04:46:16;;;;;;;7.00;3.83;;;4.30;99.90;;;;;;5004164;28;20862;-66
2023/11/17 04:48:45;;;;;;;4.60;4.20;;;4.40;99.90;;;;;;4975846;28;20478;-66
2023/11/17 04:51:18;;;;;;;4.10;3.50;;;4.40;99.90;;;;;;5003691;28;20484;-66
2023/11/17 04:53:55;;;;;;;5.47;3.63;;;4.40;99.90;;;;;;5004937;28;20454;-66
2023/11/17 04:56:22;;;;;;;3.87;2.23;;;4.40;99.90;;;;;;5004853;28;20457;-67
2023/11/17 04:58:49;;;;;;;4.90;4.07;;;4.30;99.90;;;;;;5004518;28;20422;-66
2023/11/17 05:01:57;;;;;;;4.63;4.13;;;4.30;99.90;;;;;;5003609;28;20854;-65
2023/11/17 05:07:48;;;;;;;4.50;2.77;;;4.30;99.90;;;;;;5006653;28;20388;-66
2023/11/17 05:11:11;;;;;;;5.20;4.10;;;4.30;99.90;;;;;;5008922;28;20470;-67
2023/11/17 05:13:39;;;;;;;3.77;2.73;;;4.30;99.90;;;;;;5006402;28;20494;-65
2023/11/17 05:16:06;;;;;;;3.43;2.70;;;4.30;99.90;;;;;;5006541;28;20445;-65
2023/11/17 05:18:48;;;;;;;4.53;3.10;;;4.30;99.90;;;;;;5005881;28;20442;-66
2023/11/17 05:21:17;;;;;;;9.60;4.57;;;4.30;99.90;;;;;;5003571;28;20513;-65
2023/11/17 05:23:45;;;;;;;4.37;2.80;;;4.30;99.90;;;;;;5003304;28;20434;-65
2023/11/17 05:26:12;;;;;;;4.17;2.93;;;4.20;99.90;;;;;;5004274;28;20454;-66
2023/11/17 05:28:47;;;;;;;3.40;2.87;;;4.20;99.90;;;;;;5002692;28;20457;-66
2023/11/17 05:31:14;;;;;;;6.43;4.00;;;4.20;99.90;;;;;;5001776;28;20465;-67
2023/11/17 05:33:41;;;;;;;5.07;3.00;;;4.10;99.90;;;;;;5001942;28;20501;-66
2023/11/17 05:36:39;;;;;;;3.40;3.03;;;4.20;99.90;;;;;;5002402;28;20464;-65
2023/11/17 05:39:09;;;;;;;4.20;3.33;;;4.20;99.90;;;;;;5001854;28;20430;-66
2023/11/17 05:41:37;;;;;;;5.17;3.77;;;4.10;99.90;;;;;;5002683;28;20497;-66
2023/11/17 05:47:25;;;;;;;3.47;2.43;;;4.20;99.90;;;;;;5001108;28;20425;-66
2023/11/17 05:49:55;;;;;;;5.50;3.27;;;4.20;99.90;;;;;;5001687;28;20817;-66
2023/11/17 05:52:32;;;;;;;4.27;3.07;;;4.20;99.90;;;;;;5006285;28;20540;-65
2023/11/17 05:55:18;;;;;;;5.93;3.90;;;4.20;99.90;;;;;;5006975;28;20548;-65
2023/11/17 05:57:46;;;;;;;13.93;2.13;;;4.20;99.90;;;;;;5008437;28;20434;-66
2023/11/17 06:00:18;;;;;;;3.97;3.20;;;4.20;99.90;;;;;;5004076;28;20457;-66
2023/11/17 06:02:45;;;;;;;5.70;2.60;;;4.20;99.90;;;;;;5005514;28;20473;-66
2023/11/17 06:05:57;;;;;;;7.13;3.00;;;4.20;99.90;;;;;;5005147;28;20525;-66
2023/11/17 06:08:25;;;;;;;4.03;3.20;;;4.20;99.90;;;;;;5007964;28;20488;-66
2023/11/17 06:10:53;;;;;;;4.83;3.00;;;4.20;99.90;;;;;;5007783;28;20473;-66
2023/11/17 06:14:15;;;;;;;4.50;2.20;;;4.30;99.90;;;;;;5006363;28;20473;-65
2023/11/17 06:16:43;;;;;;;3.30;2.90;;;4.30;99.90;;;;;;5005865;28;20466;-66
2023/11/17 06:19:12;;;;;;;3.00;2.57;;;4.20;99.90;;;;;;5006771;28;20430;-66
2023/11/17 06:21:39;;;;;;;4.10;2.57;;;4.30;99.90;;;;;;5006854;28;20520;-65
2023/11/17 06:24:16;;;;;;;3.87;2.43;;;4.30;99.90;;;;;;5007264;28;20430;-67
2023/11/17 06:26:57;;;;;;;3.70;2.53;;;4.20;99.90;;;;;;5004874;28;20527;-66
2023/11/17 06:29:24;;;;;;;3.40;2.63;;;4.20;99.90;;;;;;5004004;28;20903;-66
2023/11/17 06:31:53;;;;;;;5.10;3.30;;;4.20;99.90;;;;;;5004302;28;20883;-65
2023/11/17 06:34:21;;;;;;;4.17;2.80;;;4.20;99.90;;;;;;5005530;28;20425;-65
2023/11/17 06:37:28;;;;;;;3.60;3.00;;;4.20;99.90;;;;;;5005986;28;20419;-66
2023/11/17 06:39:55;;;;;;;5.20;3.00;;;4.20;99.90;;;;;;5009128;28;20426;-65
2023/11/17 06:42:25;;;;;;;4.97;3.40;;;4.20;99.90;;;;;;5008018;28;20500;-66
2023/11/17 06:45:12;;;;;;;6.00;3.07;;;4.20;99.90;;;;;;5009182;28;20481;-66
2023/11/17 06:48:00;;;;;;;7.33;3.03;;;4.30;99.90;;;;;;5006245;28;20830;-66
2023/11/17 06:50:29;;;;;;;2.53;1.90;;;4.30;99.90;;;;;;5006506;28;20492;-66
2023/11/17 08:15:24;;;;;;;3.77;2.97;;;4.20;99.90;;;;;;4965972;29;20423;-66
2023/11/17 08:17:59;;;;;;;3.93;3.10;;;4.70;99.90;;;;;;4968594;29;20428;-66
2023/11/17 08:23:48;;;;;;;5.73;3.00;;;4.70;99.90;;;;;;4960813;29;20467;-70
2023/11/17 08:26:42;;;;;;;3.30;3.00;;;4.90;99.90;;;;;;4963193;29;20448;-66
2023/11/17 08:29:10;;;;;;;4.43;3.30;;;5.10;99.90;;;;;;4963711;29;20444;-66
2023/11/17 08:35:01;;;;;;;4.43;3.60;;;4.90;99.90;;;;;;4966698;29;20383;-65
2023/11/17 08:37:53;;;;;;;3.03;2.23;;;4.80;99.90;;;;;;4966767;29;20432;-67
2023/11/17 08:40:39;;;;;;;4.90;3.13;;;4.80;99.90;;;;;;4966155;29;20885;-66
2023/11/17 08:43:06;;;;;;;5.07;3.37;;;4.80;99.90;;;;;;4965001;28;20483;-66
2023/11/17 08:45:34;;;;;;;3.60;2.70;;;4.80;99.90;;;;;;4966172;29;20435;-65
2023/11/17 08:48:52;;;;;;;2.03;1.70;;;4.80;99.90;;;;;;4966003;29;20450;-67
2023/11/17 08:51:33;;;;;;;4.70;2.43;;;4.80;99.90;;;;;;4968825;29;20519;-65
2023/11/17 08:54:00;;;;;;;4.70;3.00;;;4.80;99.90;;;;;;4969657;29;20447;-66
2023/11/17 08:56:32;;;;;;;4.40;2.63;;;4.70;99.90;;;;;;4968571;29;20440;-68
2023/11/17 08:59:01;;;;;;;3.97;2.60;;;4.70;99.90;;;;;;4969574;29;20472;-67
2023/11/17 09:01:28;;;;;;;4.27;3.20;;;4.70;99.90;;;;;;4967460;29;20471;-66
2023/11/17 09:04:01;;;;;;;4.73;3.00;;;4.80;99.90;;;;;;4967496;29;20460;-67
2023/11/17 09:06:31;;;;;;;4.57;3.30;;;4.80;99.90;;;;;;4966597;29;20479;-67
2023/11/17 09:08:58;;;;;;;3.63;2.30;;;4.80;99.90;;;;;;4967640;29;20436;-67
2023/11/17 09:11:26;;;;;;;3.53;2.60;;;4.80;99.90;;;;;;4967196;28;20495;-66
2023/11/17 09:14:10;;;;;;;4.00;2.77;;;4.80;99.90;;;;;;4967370;29;20451;-66
2023/11/17 09:17:23;;;;;;;3.60;2.43;;;4.90;99.90;;;;;;4967709;29;20543;-66
2023/11/17 09:19:53;;;;;;;3.87;3.03;;;4.90;99.90;;;;;;4966530;29;20447;-66
2023/11/17 09:22:22;;;;;;;4.63;3.40;;;4.90;99.90;;;;;;4967366;28;20472;-66
2023/11/17 09:25:00;;;;;;;3.37;2.60;;;4.90;99.90;;;;;;4949608;29;20955;-66
2023/11/17 09:27:47;;;;;;;6.07;3.67;;;4.90;99.90;;;;;;4966916;29;20551;-67
2023/11/17 09:30:15;;;;;;;5.87;3.00;;;4.90;99.90;;;;;;4966021;29;20476;-66
2023/11/17 09:33:02;;;;;;;5.23;3.20;;;4.90;99.90;;;;;;4952543;29;20484;-69
2023/11/17 09:35:31;;;;;;;3.17;2.27;;;5.00;99.90;;;;;;4947641;29;20433;-66
2023/11/17 09:38:11;;;;;;;3.43;2.40;;;5.00;99.90;;;;;;4946518;29;20494;-65
2023/11/17 09:40:41;;;;;;;3.50;2.00;;;5.00;99.90;;;;;;4964107;29;20440;-67
2023/11/17 10:14:32;;;;;;;6.30;3.17;;;5.20;99.90;;;;;;5348429;23;20494;-67
2023/11/17 10:17:04;;;;;;;7.10;3.80;;;5.20;99.90;;;;;;4985030;28;20451;-66
2023/11/17 10:19:34;;;;;;;5.17;3.07;;;5.30;99.90;;;;;;4975708;28;20447;-69
2023/11/17 10:22:12;;;;;;;5.60;3.93;;;5.30;99.90;;;;;;4966641;29;20474;-67
2023/11/17 10:25:02;;;;;;;2.80;2.17;;;5.30;99.90;;;;;;4969157;29;20509;-67
2023/11/17 10:27:47;;;;;;;4.23;2.50;;;5.40;99.90;;;;;;4966200;28;20448;-67
2023/11/17 10:30:34;;;;;;;3.70;3.07;;;5.40;99.90;;;;;;4965465;29;20491;-66
2023/11/17 10:33:07;;;;;;;3.20;2.43;;;5.50;99.90;;;;;;4979600;28;20551;-67
2023/11/17 10:36:01;;;;;;;4.93;3.20;;;5.50;99.90;;;;;;4984461;28;20549;-67
2023/11/17 10:38:29;;;;;;;6.23;3.03;;;5.50;99.90;;;;;;4985481;28;20537;-66
2023/11/17 10:41:17;;;;;;;3.63;2.33;;;5.50;99.90;;;;;;4987886;28;20427;-67
2023/11/17 10:43:50;;;;;;;6.30;3.20;;;5.50;99.90;;;;;;4978796;28;20456;-66
2023/11/17 10:46:42;;;;;;;9.30;2.93;;;5.60;99.90;;;;;;4967502;29;20459;-66
2023/11/17 10:49:16;;;;;;;4.03;2.43;;;5.60;99.90;;;;;;4982522;28;20435;-66
2023/11/17 10:51:54;;;;;;;5.07;2.67;;;5.70;99.90;;;;;;4967584;29;20515;-66
2023/11/17 10:54:22;;;;;;;3.27;2.60;;;5.60;99.90;;;;;;4987122;28;20478;-67
2023/11/17 10:56:52;;;;;;;3.80;2.90;;;5.70;99.90;;;;;;4987169;28;20829;-67
2023/11/17 10:59:36;;;;;;;3.03;2.57;;;5.70;99.90;;;;;;4969016;28;20483;-66
2023/11/17 11:02:47;;;;;;;2.97;2.30;;;5.80;99.90;;;;;;4986902;28;21027;-67
2023/11/17 11:05:16;;;;;;;2.83;1.97;;;5.80;99.90;;;;;;4970180;28;20828;-66
2023/11/17 11:07:44;;;;;;;3.53;2.50;;;5.80;99.90;;;;;;4970834;29;20555;-66
2023/11/17 11:10:27;;;;;;;2.17;1.97;;;5.70;99.90;;;;;;4985042;28;20471;-66
2023/11/17 11:16:16;;;;;;;4.13;3.13;;;5.70;99.90;;;;;;4986303;28;20441;-67
2023/11/17 11:19:01;;;;;;;3.70;3.00;;;5.70;99.90;;;;;;4971072;28;20474;-66
2023/11/17 11:21:33;;;;;;;2.43;2.00;;;5.70;99.90;;;;;;4987943;28;20451;-67
2023/11/17 11:24:04;;;;;;;3.80;2.77;;;5.70;99.90;;;;;;4976252;28;20466;-68
2023/11/17 11:29:54;;;;;;;3.47;2.43;;;5.80;99.90;;;;;;4970031;28;20376;-67
2023/11/17 11:32:24;;;;;;;3.87;2.53;;;5.80;99.90;;;;;;4986621;28;20463;-65
2023/11/17 11:34:52;;;;;;;4.13;2.37;;;5.90;99.90;;;;;;4987466;28;21171;-66
2023/11/17 11:37:23;;;;;;;3.30;3.00;;;5.90;99.90;;;;;;4985716;28;20428;-66
2023/11/17 11:46:40;;;;;;;3.47;2.43;;;5.90;99.90;;;;;;4983231;28;20426;-66
2023/11/17 11:49:57;;;;;;;3.40;3.10;;;5.80;99.90;;;;;;4986884;28;20987;-66
2023/11/17 11:52:41;;;;;;;2.07;1.80;;;5.80;99.90;;;;;;4986881;28;20463;-67
2023/11/17 11:55:32;;;;;;;3.67;2.20;;;5.80;99.90;;;;;;4986925;28;20423;-65
2023/11/17 11:57:59;;;;;;;3.50;2.30;;;5.90;99.90;;;;;;4976751;28;20439;-66
2023/11/17 12:00:26;;;;;;;2.80;2.30;;;5.80;99.90;;;;;;4988632;28;20430;-66
2023/11/17 12:03:20;;;;;;;6.67;2.87;;;5.80;99.90;;;;;;4988445;28;20470;-66
2023/11/17 12:05:48;;;;;;;4.23;2.27;;;5.90;99.90;;;;;;4971528;28;20451;-66
2023/11/17 12:08:27;;;;;;;2.70;2.10;;;6.00;99.90;;;;;;4988710;28;20438;-66
2023/11/17 12:11:01;;;;;;;3.70;2.53;;;6.00;99.90;;;;;;4988910;28;20489;-68
2023/11/17 12:13:48;;;;;;;3.03;2.83;;;6.00;99.90;;;;;;4984338;28;20472;-67
2023/11/17 12:16:20;;;;;;;3.40;2.00;;;6.10;99.90;;;;;;4984916;28;20513;-65
2023/11/17 12:18:53;;;;;;;2.60;1.70;;;6.10;99.90;;;;;;4968312;28;20474;-67
2023/11/17 12:21:22;;;;;;;5.27;3.40;;;6.00;99.90;;;;;;4984627;28;20467;-66
2023/11/17 12:27:17;;;;;;;2.90;2.30;;;6.00;99.90;;;;;;4981741;28;20772;-67
2023/11/17 12:29:45;;;;;;;3.47;2.57;;;6.00;99.90;;;;;;4974432;28;20456;-66
2023/11/17 12:32:12;;;;;;;3.33;2.03;;;6.10;99.90;;;;;;4980084;28;20545;-67
2023/11/17 12:35:20;;;;;;;4.10;3.03;;;6.10;99.90;;;;;;4986373;28;20432;-65
2023/11/17 12:38:24;;;;;;;3.57;2.90;;;6.00;99.90;;;;;;4984317;28;20442;-66
2023/11/17 12:41:14;;;;;;;3.77;2.67;;;6.00;99.90;;;;;;4984072;28;20459;-66
2023/11/17 12:43:49;;;;;;;3.87;2.33;;;6.00;99.90;;;;;;4985331;28;20447;-66
2023/11/17 12:46:25;;;;;;;3.90;2.20;;;6.00;99.90;;;;;;4967799;29;20463;-67
2023/11/17 12:48:53;;;;;;;3.13;1.90;;;6.00;99.90;;;;;;4968525;28;20455;-66
2023/11/17 12:51:25;;;;;;;2.87;2.20;;;6.00;99.90;;;;;;4966341;29;20507;-66
2023/11/17 12:54:32;;;;;;;3.10;2.17;;;6.00;99.90;;;;;;4979873;28;20538;-67
2023/11/17 12:57:38;;;;;;;3.60;2.10;;;6.00;99.90;;;;;;4988757;28;20477;-66
2023/11/17 13:00:16;;;;;;;2.57;2.07;;;6.00;99.90;;;;;;4983669;28;20490;-70
2023/11/17 13:03:25;;;;;;;3.10;2.23;;;6.00;99.90;;;;;;4985873;28;20467;-68
2023/11/17 13:05:56;;;;;;;3.20;2.03;;;6.00;99.90;;;;;;4989525;28;20482;-68
2023/11/17 13:08:24;;;;;;;3.43;2.30;;;6.00;99.90;;;;;;4989806;28;20432;-69
2023/11/17 13:11:06;;;;;;;3.87;2.20;;;6.00;99.90;;;;;;4985501;28;20470;-68
2023/11/17 13:13:36;;;;;;;2.60;1.80;;;6.00;99.90;;;;;;4985643;28;20430;-68
2023/11/17 13:16:18;;;;;;;3.30;2.83;;;6.00;99.90;;;;;;4984603;28;20960;-68
2023/11/17 13:18:50;;;;;;;4.33;2.17;;;6.00;99.90;;;;;;4986468;28;20447;-67
2023/11/17 13:23:47;;;;;;;3.40;2.03;;;6.10;99.90;;;;;;4970610;28;20470;-61
2023/11/17 13:26:19;;;;;;;3.10;1.80;;;6.10;99.90;;;;;;4967138;28;20519;-60
2023/11/17 13:28:48;;;;;;;3.40;2.30;;;6.20;99.90;;;;;;4968133;28;20873;-61
2023/11/17 13:31:22;;;;;;;3.10;2.13;;;6.20;99.90;;;;;;4968835;28;20513;-62
2023/11/17 13:33:52;;;;;;;3.00;2.23;;;6.20;99.90;;;;;;4967066;28;20467;-62
2023/11/17 13:36:21;;;;;;;3.27;2.33;;;6.20;99.90;;;;;;4975343;28;20482;-61
2023/11/17 13:39:00;;;;;;;4.40;2.97;;;6.10;99.90;;;;;;4958848;28;20469;-61
2023/11/17 13:41:29;;;;;;;2.20;1.87;;;6.10;99.90;;;;;;4967684;28;20431;-57
2023/11/17 13:44:00;;;;;;;2.63;1.90;;;6.20;99.90;;;;;;4966673;28;20463;-61
2023/11/17 13:46:30;;;;;;;3.47;1.90;;;6.20;99.90;;;;;;4959574;28;20458;-62
2023/11/17 13:49:09;;;;;;;3.00;2.20;;;6.20;99.90;;;;;;4968763;28;20432;-61
2023/11/17 13:51:37;;;;;;;2.53;1.60;;;6.30;99.90;;;;;;4971616;28;20514;-62
2023/11/17 13:54:07;;;;;;;2.50;1.50;;;6.30;99.90;;;;;;4970591;28;20475;-63
2023/11/17 13:56:34;;;;;;;2.80;2.30;;;6.30;99.90;;;;;;4960074;28;20574;-62
2023/11/17 13:59:01;;;;;;;2.60;2.33;;;6.20;99.90;;;;;;4974844;28;20439;-61
2023/11/17 14:01:29;;;;;;;2.73;2.50;;;6.30;99.90;;;;;;4968432;28;20468;-61
2023/11/17 14:03:57;;;;;;;2.80;2.00;;;6.20;99.90;;;;;;4970199;28;20531;-62
2023/11/17 14:06:24;;;;;;;2.40;1.47;;;6.20;99.90;;;;;;4974562;28;20466;-63
2023/11/17 14:08:53;;;;;;;5.10;1.90;;;6.30;99.90;;;;;;4970719;28;20800;-61
2023/11/17 14:11:22;;;;;;;2.77;1.93;;;6.30;99.90;;;;;;4973195;28;20487;-63
2023/11/17 14:13:52;;;;;;;1.80;1.70;;;6.30;99.90;;;;;;4976505;28;20471;-63
2023/11/17 14:16:21;;;;;;;1.70;1.50;;;6.30;99.90;;;;;;4975148;28;20516;-62
2023/11/17 14:18:50;;;;;;;1.73;1.33;;;6.30;99.90;;;;;;4964639;28;20952;-62
2023/11/17 14:21:18;;;;;;;3.03;1.70;;;6.30;99.90;;;;;;4977635;28;20470;-61
2023/11/17 14:23:46;;;;;;;3.47;2.43;;;6.30;99.90;;;;;;4976325;28;20556;-62
2023/11/17 14:26:13;;;;;;;5.43;2.50;;;6.30;99.90;;;;;;4974782;28;20501;-62
2023/11/17 14:28:40;;;;;;;3.77;2.00;;;6.30;99.90;;;;;;4972208;28;20470;-60
2023/11/17 14:31:07;;;;;;;2.33;2.13;;;6.30;99.90;;;;;;4971888;28;20483;-61
2023/11/17 14:33:35;;;;;;;2.37;1.97;;;6.30;99.90;;;;;;4974739;28;20501;-64
2023/11/17 14:36:04;;;;;;;2.80;2.13;;;6.30;99.90;;;;;;4976773;28;20712;-61
2023/11/17 14:38:31;;;;;;;2.67;1.93;;;6.40;99.90;;;;;;4976969;28;20553;-60
2023/11/17 14:40:59;;;;;;;3.07;1.90;;;6.40;99.90;;;;;;4973200;28;20475;-60
2023/11/17 14:43:26;;;;;;;1.57;1.47;;;6.40;99.90;;;;;;4974737;28;20935;-62
2023/11/17 14:45:55;;;;;;;1.60;1.20;;;6.30;99.90;;;;;;4975475;28;20474;-62
2023/11/17 14:48:22;;;;;;;2.60;1.87;;;6.30;99.90;;;;;;4978292;28;20458;-60
2023/11/17 14:50:49;;;;;;;2.20;1.97;;;6.30;99.90;;;;;;4975051;28;20467;-61
2023/11/17 14:53:18;;;;;;;4.30;2.23;;;6.30;99.90;;;;;;4976817;28;20825;-58
2023/11/17 14:55:45;;;;;;;1.63;1.27;;;6.40;99.90;;;;;;4976765;28;20558;-63
2023/11/17 14:58:13;;;;;;;2.53;1.77;;;6.40;99.90;;;;;;4971883;28;20554;-61
2023/11/17 15:00:41;;;;;;;2.20;1.60;;;6.30;99.90;;;;;;4976340;28;20475;-62
2023/11/17 15:03:10;;;;;;;3.13;1.77;;;6.30;99.90;;;;;;4975360;28;20537;-61
2023/11/17 15:05:38;;;;;;;2.03;1.37;;;6.30;99.90;;;;;;4969740;28;20466;-60
2023/11/17 15:08:09;;;;;;;2.40;2.20;;;6.30;99.90;;;;;;4975486;28;20546;-60
2023/11/17 15:10:39;;;;;;;2.17;1.80;;;6.30;99.90;;;;;;4977082;28;20455;-61
2023/11/17 15:13:06;;;;;;;2.97;2.03;;;6.20;99.90;;;;;;4976120;28;20503;-61
2023/11/17 15:15:33;;;;;;;2.83;2.10;;;6.30;99.90;;;;;;4977105;28;20505;-61
2023/11/17 15:18:06;;;;;;;2.30;2.10;;;6.30;99.90;;;;;;4970579;28;20444;-59
2023/11/17 15:20:34;;;;;;;3.37;2.20;;;6.30;99.90;;;;;;4968939;28;20447;-60
2023/11/17 15:23:01;;;;;;;3.80;2.80;;;6.40;99.90;;;;;;4968651;28;20451;-61
2023/11/17 15:25:35;;;;;;;2.80;2.40;;;6.40;99.90;;;;;;4976958;28;20543;-60
2023/11/17 15:28:10;;;;;;;3.37;2.70;;;6.40;99.90;;;;;;4977296;28;20447;-61
2023/11/17 15:30:38;;;;;;;3.40;2.63;;;6.40;99.90;;;;;;4976799;28;20454;-61
2023/11/17 15:33:08;;;;;;;3.70;2.70;;;6.40;99.90;;;;;;4977176;28;20482;-62
2023/11/17 15:35:36;;;;;;;3.77;2.67;;;6.40;99.90;;;;;;4971397;28;20503;-63
2023/11/17 15:38:05;;;;;;;2.53;2.00;;;6.40;99.90;;;;;;4976311;28;20550;-61
2023/11/17 15:40:33;;;;;;;2.43;1.90;;;6.30;99.90;;;;;;4977085;28;20477;-62
2023/11/17 15:43:00;;;;;;;2.97;2.20;;;6.30;99.90;;;;;;4962376;28;20448;-62
2023/11/17 15:45:28;;;;;;;3.03;2.60;;;6.40;99.90;;;;;;4975798;28;20547;-60
2023/11/17 15:47:55;;;;;;;4.47;3.20;;;6.30;99.90;;;;;;4970716;28;20444;-62
2023/11/17 15:50:22;;;;;;;3.73;2.63;;;6.30;99.90;;;;;;4961958;28;20936;-61
2023/11/17 15:52:49;;;;;;;4.33;2.87;;;6.30;99.90;;;;;;4977257;28;20482;-63
2023/11/17 15:55:16;;;;;;;2.60;2.10;;;6.30;99.90;;;;;;4984091;28;20529;-62
2023/11/17 15:57:44;;;;;;;2.10;1.80;;;6.30;99.90;;;;;;4980643;28;20549;-59
2023/11/17 16:00:13;;;;;;;2.37;1.93;;;6.30;99.90;;;;;;4988974;28;20447;-61
2023/11/17 16:02:45;;;;;;;3.20;2.90;;;6.30;99.90;;;;;;4999227;28;20462;-60
2023/11/17 16:05:14;;;;;;;3.53;2.40;;;6.30;99.90;;;;;;4998354;28;20435;-59
2023/11/17 16:07:47;;;;;;;2.07;1.87;;;6.30;99.90;;;;;;4998252;28;20482;-61
2023/11/17 16:10:15;;;;;;;3.73;2.90;;;6.30;99.90;;;;;;4997596;28;20538;-56
2023/11/17 16:12:47;;;;;;;3.80;2.60;;;6.30;99.90;;;;;;4997466;28;20474;-59
2023/11/17 16:15:18;;;;;;;5.37;3.10;;;6.30;99.90;;;;;;4997633;28;20458;-61
2023/11/17 16:17:47;;;;;;;1.40;1.30;;;6.20;99.90;;;;;;4997879;28;20467;-59
2023/11/17 16:20:17;;;;;;;3.50;1.90;;;6.20;99.90;;;;;;4997475;28;20499;-61
2023/11/17 16:22:47;;;;;;;3.03;2.10;;;6.10;99.90;;;;;;4997587;28;20446;-61
2023/11/17 16:25:15;;;;;;;2.73;1.83;;;6.10;99.90;;;;;;4997031;28;20423;-58
2023/11/17 16:27:44;;;;;;;7.53;2.30;;;6.10;99.90;;;;;;4996442;28;20605;-56
2023/11/17 16:30:14;;;;;;;3.03;2.07;;;6.10;99.90;;;;;;4997009;28;20455;-58
2023/11/17 16:32:49;;;;;;;3.37;2.10;;;6.10;99.90;;;;;;4996911;28;20526;-55
2023/11/17 16:35:17;;;;;;;3.83;2.27;;;6.00;99.90;;;;;;4996113;28;20506;-62